sensor_id;sensor_type;location;lat;lon;timestamp;P1;durP1;ratioP1;P2;durP2;ratioP2
3133;SDS011;1577;49.912;10.924;2023-06-14T00:01:41;5.90;;;4.10;;
3133;SDS011;1577;49.912;10.924;2023-06-14T00:04:10;10.27;;;4.20;;
3133;SDS011;1577;49.912;10.924;2023-06-14T00:06:36;7.53;;;4.30;;
3133;SDS011;1577;49.912;10.924;2023-06-14T00:09:01;9.63;;;4.30;;
3133;SDS011;1577;49.912;10.924;2023-06-14T00:11:27;6.30;;;4.27;;
3133;SDS011;1577;49.912;10.924;2023-06-14T00:13:54;6.20;;;4.27;;
3133;SDS011;1577;49.912;10.924;2023-06-14T00:16:20;6.87;;;4.60;;
3133;SDS011;1577;49.912;10.924;2023-06-14T00:18:46;7.50;;;4.37;;
3133;SDS011;1577;49.912;10.924;2023-06-14T00:21:11;6.70;;;4.30;;
3133;SDS011;1577;49.912;10.924;2023-06-14T00:23:37;7.17;;;3.90;;
3133;SDS011;1577;49.912;10.924;2023-06-14T00:26:03;8.13;;;5.00;;
3133;SDS011;1577;49.912;10.924;2023-06-14T00:28:28;6.87;;;4.03;;
3133;SDS011;1577;49.912;10.924;2023-06-14T00:30:54;6.33;;;3.73;;
3133;SDS011;1577;49.912;10.924;2023-06-14T00:33:20;6.20;;;4.37;;
3133;SDS011;1577;49.912;10.924;2023-06-14T00:35:46;6.67;;;3.90;;
3133;SDS011;1577;49.912;10.924;2023-06-14T00:38:12;11.70;;;3.77;;
3133;SDS011;1577;49.912;10.924;2023-06-14T00:40:37;5.90;;;4.13;;
3133;SDS011;1577;49.912;10.924;2023-06-14T00:43:03;7.60;;;3.60;;
3133;SDS011;1577;49.912;10.924;2023-06-14T00:45:28;8.77;;;4.67;;
3133;SDS011;1577;49.912;10.924;2023-06-14T00:47:56;7.70;;;4.60;;
3133;SDS011;1577;49.912;10.924;2023-06-14T00:50:22;7.43;;;4.17;;
3133;SDS011;1577;49.912;10.924;2023-06-14T00:52:49;6.30;;;4.30;;
3133;SDS011;1577;49.912;10.924;2023-06-14T00:55:15;8.77;;;3.83;;
3133;SDS011;1577;49.912;10.924;2023-06-14T00:57:40;7.67;;;4.57;;
3133;SDS011;1577;49.912;10.924;2023-06-14T01:00:06;6.00;;;3.63;;
3133;SDS011;1577;49.912;10.924;2023-06-14T01:02:35;7.57;;;4.67;;
3133;SDS011;1577;49.912;10.924;2023-06-14T01:05:02;7.10;;;4.07;;
3133;SDS011;1577;49.912;10.924;2023-06-14T01:07:43;11.53;;;4.57;;
3133;SDS011;1577;49.912;10.924;2023-06-14T01:13:05;7.10;;;4.80;;
3133;SDS011;1577;49.912;10.924;2023-06-14T01:15:51;8.67;;;4.67;;
3133;SDS011;1577;49.912;10.924;2023-06-14T01:18:18;6.03;;;3.80;;
3133;SDS011;1577;49.912;10.924;2023-06-14T01:20:45;6.43;;;4.40;;
3133;SDS011;1577;49.912;10.924;2023-06-14T01:23:18;11.13;;;4.73;;
3133;SDS011;1577;49.912;10.924;2023-06-14T01:25:46;10.73;;;5.00;;
3133;SDS011;1577;49.912;10.924;2023-06-14T01:28:12;6.40;;;4.43;;
3133;SDS011;1577;49.912;10.924;2023-06-14T01:30:41;6.90;;;4.73;;
3133;SDS011;1577;49.912;10.924;2023-06-14T01:33:12;8.53;;;4.80;;
3133;SDS011;1577;49.912;10.924;2023-06-14T01:35:40;6.93;;;5.07;;
3133;SDS011;1577;49.912;10.924;2023-06-14T01:38:09;8.27;;;4.50;;
3133;SDS011;1577;49.912;10.924;2023-06-14T01:40:36;7.83;;;5.03;;
3133;SDS011;1577;49.912;10.924;2023-06-14T01:43:04;6.63;;;4.80;;
3133;SDS011;1577;49.912;10.924;2023-06-14T01:45:30;8.60;;;4.57;;
3133;SDS011;1577;49.912;10.924;2023-06-14T01:47:57;7.10;;;4.90;;
3133;SDS011;1577;49.912;10.924;2023-06-14T01:50:24;6.50;;;4.73;;
3133;SDS011;1577;49.912;10.924;2023-06-14T01:52:54;8.00;;;5.30;;
3133;SDS011;1577;49.912;10.924;2023-06-14T01:55:20;7.70;;;4.40;;
3133;SDS011;1577;49.912;10.924;2023-06-14T01:57:46;7.27;;;4.73;;
3133;SDS011;1577;49.912;10.924;2023-06-14T02:00:13;6.20;;;4.67;;
3133;SDS011;1577;49.912;10.924;2023-06-14T02:02:40;7.03;;;4.13;;
3133;SDS011;1577;49.912;10.924;2023-06-14T02:05:06;7.93;;;4.63;;
3133;SDS011;1577;49.912;10.924;2023-06-14T02:07:32;7.13;;;4.93;;
3133;SDS011;1577;49.912;10.924;2023-06-14T02:09:58;8.37;;;5.60;;
3133;SDS011;1577;49.912;10.924;2023-06-14T02:12:24;6.73;;;4.40;;
3133;SDS011;1577;49.912;10.924;2023-06-14T02:14:49;7.90;;;4.20;;
3133;SDS011;1577;49.912;10.924;2023-06-14T02:17:15;7.57;;;4.70;;
3133;SDS011;1577;49.912;10.924;2023-06-14T02:19:41;10.73;;;4.90;;
3133;SDS011;1577;49.912;10.924;2023-06-14T02:22:07;7.13;;;4.50;;
3133;SDS011;1577;49.912;10.924;2023-06-14T02:24:32;6.57;;;4.90;;
3133;SDS011;1577;49.912;10.924;2023-06-14T02:26:58;7.47;;;4.73;;
3133;SDS011;1577;49.912;10.924;2023-06-14T02:29:24;6.73;;;4.63;;
3133;SDS011;1577;49.912;10.924;2023-06-14T02:31:50;7.00;;;4.60;;
3133;SDS011;1577;49.912;10.924;2023-06-14T02:34:16;6.53;;;4.93;;
3133;SDS011;1577;49.912;10.924;2023-06-14T02:36:42;6.93;;;5.17;;
3133;SDS011;1577;49.912;10.924;2023-06-14T02:39:10;10.27;;;4.87;;
3133;SDS011;1577;49.912;10.924;2023-06-14T02:41:36;7.27;;;5.10;;
3133;SDS011;1577;49.912;10.924;2023-06-14T02:44:02;9.93;;;5.50;;
3133;SDS011;1577;49.912;10.924;2023-06-14T02:46:28;7.67;;;4.60;;
3133;SDS011;1577;49.912;10.924;2023-06-14T02:48:53;7.47;;;5.17;;
3133;SDS011;1577;49.912;10.924;2023-06-14T02:51:19;7.43;;;4.77;;
3133;SDS011;1577;49.912;10.924;2023-06-14T02:53:45;20.23;;;4.93;;
3133;SDS011;1577;49.912;10.924;2023-06-14T02:56:10;6.90;;;5.03;;
3133;SDS011;1577;49.912;10.924;2023-06-14T02:58:36;6.70;;;5.00;;
3133;SDS011;1577;49.912;10.924;2023-06-14T03:01:03;8.60;;;4.90;;
3133;SDS011;1577;49.912;10.924;2023-06-14T03:03:30;9.33;;;4.90;;
3133;SDS011;1577;49.912;10.924;2023-06-14T03:05:56;10.63;;;5.13;;
3133;SDS011;1577;49.912;10.924;2023-06-14T03:08:22;10.20;;;5.47;;
3133;SDS011;1577;49.912;10.924;2023-06-14T03:10:52;16.27;;;4.93;;
3133;SDS011;1577;49.912;10.924;2023-06-14T03:13:18;8.67;;;5.20;;
3133;SDS011;1577;49.912;10.924;2023-06-14T03:15:47;6.10;;;4.60;;
3133;SDS011;1577;49.912;10.924;2023-06-14T03:18:15;8.90;;;4.93;;
3133;SDS011;1577;49.912;10.924;2023-06-14T03:20:41;7.07;;;4.47;;
3133;SDS011;1577;49.912;10.924;2023-06-14T03:23:07;7.10;;;4.90;;
3133;SDS011;1577;49.912;10.924;2023-06-14T03:25:33;6.20;;;5.00;;
3133;SDS011;1577;49.912;10.924;2023-06-14T03:28:00;8.67;;;5.47;;
3133;SDS011;1577;49.912;10.924;2023-06-14T03:30:27;12.67;;;6.00;;
3133;SDS011;1577;49.912;10.924;2023-06-14T03:32:52;9.43;;;5.70;;
3133;SDS011;1577;49.912;10.924;2023-06-14T03:35:20;7.77;;;5.70;;
3133;SDS011;1577;49.912;10.924;2023-06-14T03:37:46;8.07;;;5.90;;
3133;SDS011;1577;49.912;10.924;2023-06-14T03:40:13;6.67;;;5.50;;
3133;SDS011;1577;49.912;10.924;2023-06-14T03:42:40;8.00;;;5.77;;
3133;SDS011;1577;49.912;10.924;2023-06-14T03:45:06;9.10;;;5.40;;
3133;SDS011;1577;49.912;10.924;2023-06-14T03:47:32;7.90;;;5.80;;
3133;SDS011;1577;49.912;10.924;2023-06-14T03:49:58;7.30;;;4.87;;
3133;SDS011;1577;49.912;10.924;2023-06-14T03:52:23;7.03;;;5.10;;
3133;SDS011;1577;49.912;10.924;2023-06-14T03:54:50;6.03;;;4.67;;
3133;SDS011;1577;49.912;10.924;2023-06-14T03:57:16;7.87;;;5.17;;
3133;SDS011;1577;49.912;10.924;2023-06-14T03:59:42;8.50;;;5.83;;
3133;SDS011;1577;49.912;10.924;2023-06-14T04:02:07;7.23;;;5.07;;
3133;SDS011;1577;49.912;10.924;2023-06-14T04:04:34;6.20;;;4.43;;
3133;SDS011;1577;49.912;10.924;2023-06-14T04:07:00;8.03;;;4.60;;
3133;SDS011;1577;49.912;10.924;2023-06-14T04:09:28;7.87;;;5.40;;
3133;SDS011;1577;49.912;10.924;2023-06-14T04:11:56;7.60;;;4.90;;
3133;SDS011;1577;49.912;10.924;2023-06-14T04:14:22;8.20;;;5.60;;
3133;SDS011;1577;49.912;10.924;2023-06-14T04:16:48;10.40;;;6.50;;
3133;SDS011;1577;49.912;10.924;2023-06-14T04:19:14;7.30;;;5.60;;
3133;SDS011;1577;49.912;10.924;2023-06-14T04:21:40;11.93;;;5.50;;
3133;SDS011;1577;49.912;10.924;2023-06-14T04:24:06;8.57;;;5.17;;
3133;SDS011;1577;49.912;10.924;2023-06-14T04:26:37;8.37;;;5.03;;
3133;SDS011;1577;49.912;10.924;2023-06-14T04:29:04;8.37;;;5.13;;
3133;SDS011;1577;49.912;10.924;2023-06-14T04:31:31;9.10;;;5.13;;
3133;SDS011;1577;49.912;10.924;2023-06-14T04:34:02;7.77;;;5.13;;
3133;SDS011;1577;49.912;10.924;2023-06-14T04:36:31;8.40;;;5.43;;
3133;SDS011;1577;49.912;10.924;2023-06-14T04:38:59;7.03;;;5.30;;
3133;SDS011;1577;49.912;10.924;2023-06-14T04:41:25;7.13;;;5.20;;
3133;SDS011;1577;49.912;10.924;2023-06-14T04:43:55;8.27;;;5.10;;
3133;SDS011;1577;49.912;10.924;2023-06-14T04:46:29;7.87;;;5.53;;
3133;SDS011;1577;49.912;10.924;2023-06-14T04:48:57;7.40;;;5.00;;
3133;SDS011;1577;49.912;10.924;2023-06-14T04:51:27;6.77;;;4.80;;
3133;SDS011;1577;49.912;10.924;2023-06-14T04:53:57;11.00;;;5.53;;
3133;SDS011;1577;49.912;10.924;2023-06-14T04:56:23;10.97;;;4.80;;
3133;SDS011;1577;49.912;10.924;2023-06-14T04:58:50;10.53;;;5.40;;
3133;SDS011;1577;49.912;10.924;2023-06-14T05:01:17;9.63;;;5.23;;
3133;SDS011;1577;49.912;10.924;2023-06-14T05:03:43;6.73;;;4.33;;
3133;SDS011;1577;49.912;10.924;2023-06-14T05:06:10;9.97;;;5.40;;
3133;SDS011;1577;49.912;10.924;2023-06-14T05:08:36;6.83;;;4.80;;
3133;SDS011;1577;49.912;10.924;2023-06-14T05:11:02;10.10;;;4.70;;
3133;SDS011;1577;49.912;10.924;2023-06-14T05:13:28;7.00;;;4.90;;
3133;SDS011;1577;49.912;10.924;2023-06-14T05:15:53;7.63;;;4.90;;
3133;SDS011;1577;49.912;10.924;2023-06-14T05:18:19;6.70;;;4.83;;
3133;SDS011;1577;49.912;10.924;2023-06-14T05:20:45;8.20;;;4.87;;
3133;SDS011;1577;49.912;10.924;2023-06-14T05:23:11;9.97;;;4.80;;
3133;SDS011;1577;49.912;10.924;2023-06-14T05:25:41;9.70;;;4.93;;
3133;SDS011;1577;49.912;10.924;2023-06-14T05:28:10;8.53;;;5.13;;
3133;SDS011;1577;49.912;10.924;2023-06-14T05:30:37;6.10;;;4.57;;
3133;SDS011;1577;49.912;10.924;2023-06-14T05:33:03;7.73;;;5.00;;
3133;SDS011;1577;49.912;10.924;2023-06-14T05:35:29;8.60;;;5.20;;
3133;SDS011;1577;49.912;10.924;2023-06-14T05:37:54;10.03;;;4.60;;
3133;SDS011;1577;49.912;10.924;2023-06-14T05:40:20;7.17;;;4.93;;
3133;SDS011;1577;49.912;10.924;2023-06-14T05:42:46;8.87;;;5.80;;
3133;SDS011;1577;49.912;10.924;2023-06-14T05:45:11;8.90;;;5.10;;
3133;SDS011;1577;49.912;10.924;2023-06-14T05:47:37;8.37;;;5.47;;
3133;SDS011;1577;49.912;10.924;2023-06-14T05:50:03;10.80;;;4.87;;
3133;SDS011;1577;49.912;10.924;2023-06-14T05:52:29;8.73;;;5.00;;
3133;SDS011;1577;49.912;10.924;2023-06-14T05:54:54;9.57;;;5.30;;
3133;SDS011;1577;49.912;10.924;2023-06-14T05:57:20;9.63;;;5.10;;
3133;SDS011;1577;49.912;10.924;2023-06-14T05:59:46;7.93;;;4.73;;
3133;SDS011;1577;49.912;10.924;2023-06-14T06:02:11;7.90;;;5.60;;
3133;SDS011;1577;49.912;10.924;2023-06-14T06:04:37;6.03;;;5.10;;
3133;SDS011;1577;49.912;10.924;2023-06-14T06:07:03;12.20;;;5.47;;
3133;SDS011;1577;49.912;10.924;2023-06-14T06:09:29;10.00;;;4.50;;
3133;SDS011;1577;49.912;10.924;2023-06-14T06:11:55;7.73;;;4.47;;
3133;SDS011;1577;49.912;10.924;2023-06-14T06:14:20;6.37;;;5.03;;
3133;SDS011;1577;49.912;10.924;2023-06-14T06:16:46;7.50;;;4.60;;
3133;SDS011;1577;49.912;10.924;2023-06-14T06:19:11;5.60;;;4.23;;
3133;SDS011;1577;49.912;10.924;2023-06-14T06:21:37;8.37;;;4.63;;
3133;SDS011;1577;49.912;10.924;2023-06-14T06:24:04;6.27;;;4.27;;
3133;SDS011;1577;49.912;10.924;2023-06-14T06:26:30;5.50;;;4.20;;
3133;SDS011;1577;49.912;10.924;2023-06-14T06:28:57;6.90;;;4.60;;
3133;SDS011;1577;49.912;10.924;2023-06-14T06:31:23;7.20;;;4.83;;
3133;SDS011;1577;49.912;10.924;2023-06-14T06:33:49;6.27;;;4.90;;
3133;SDS011;1577;49.912;10.924;2023-06-14T06:36:15;5.40;;;4.23;;
3133;SDS011;1577;49.912;10.924;2023-06-14T06:38:41;6.13;;;3.57;;
3133;SDS011;1577;49.912;10.924;2023-06-14T06:41:07;5.27;;;3.93;;
3133;SDS011;1577;49.912;10.924;2023-06-14T06:43:32;5.80;;;4.40;;
3133;SDS011;1577;49.912;10.924;2023-06-14T06:45:58;7.37;;;3.37;;
3133;SDS011;1577;49.912;10.924;2023-06-14T06:48:23;7.63;;;3.93;;
3133;SDS011;1577;49.912;10.924;2023-06-14T06:50:49;5.60;;;3.53;;
3133;SDS011;1577;49.912;10.924;2023-06-14T06:53:14;6.87;;;3.20;;
3133;SDS011;1577;49.912;10.924;2023-06-14T06:55:40;6.70;;;4.03;;
3133;SDS011;1577;49.912;10.924;2023-06-14T06:58:05;4.60;;;3.70;;
3133;SDS011;1577;49.912;10.924;2023-06-14T07:00:31;4.03;;;3.40;;
3133;SDS011;1577;49.912;10.924;2023-06-14T07:02:57;4.67;;;3.50;;
3133;SDS011;1577;49.912;10.924;2023-06-14T07:05:22;4.23;;;3.20;;
3133;SDS011;1577;49.912;10.924;2023-06-14T07:07:48;7.00;;;3.90;;
3133;SDS011;1577;49.912;10.924;2023-06-14T07:10:14;4.50;;;2.90;;
3133;SDS011;1577;49.912;10.924;2023-06-14T07:12:39;5.50;;;3.00;;
3133;SDS011;1577;49.912;10.924;2023-06-14T07:15:06;4.17;;;2.80;;
3133;SDS011;1577;49.912;10.924;2023-06-14T07:17:33;4.77;;;2.73;;
3133;SDS011;1577;49.912;10.924;2023-06-14T07:19:59;3.20;;;2.40;;
3133;SDS011;1577;49.912;10.924;2023-06-14T07:22:25;6.73;;;2.37;;
3133;SDS011;1577;49.912;10.924;2023-06-14T07:24:51;3.77;;;2.17;;
3133;SDS011;1577;49.912;10.924;2023-06-14T07:27:17;4.37;;;2.33;;
3133;SDS011;1577;49.912;10.924;2023-06-14T07:29:42;4.80;;;2.53;;
3133;SDS011;1577;49.912;10.924;2023-06-14T07:32:08;4.80;;;2.30;;
3133;SDS011;1577;49.912;10.924;2023-06-14T07:34:33;3.80;;;2.00;;
3133;SDS011;1577;49.912;10.924;2023-06-14T07:36:59;3.17;;;2.30;;
3133;SDS011;1577;49.912;10.924;2023-06-14T07:39:25;4.87;;;1.77;;
3133;SDS011;1577;49.912;10.924;2023-06-14T07:41:50;4.20;;;2.30;;
3133;SDS011;1577;49.912;10.924;2023-06-14T07:44:16;2.83;;;2.27;;
3133;SDS011;1577;49.912;10.924;2023-06-14T07:46:41;2.73;;;1.60;;
3133;SDS011;1577;49.912;10.924;2023-06-14T07:49:07;4.07;;;1.70;;
3133;SDS011;1577;49.912;10.924;2023-06-14T07:51:33;3.07;;;1.77;;
3133;SDS011;1577;49.912;10.924;2023-06-14T07:53:59;5.40;;;1.73;;
3133;SDS011;1577;49.912;10.924;2023-06-14T07:56:28;3.90;;;1.70;;
3133;SDS011;1577;49.912;10.924;2023-06-14T07:58:53;3.50;;;2.00;;
3133;SDS011;1577;49.912;10.924;2023-06-14T08:01:19;2.07;;;1.50;;
3133;SDS011;1577;49.912;10.924;2023-06-14T08:03:45;3.30;;;1.73;;
3133;SDS011;1577;49.912;10.924;2023-06-14T08:06:10;2.73;;;1.77;;
3133;SDS011;1577;49.912;10.924;2023-06-14T08:08:36;3.67;;;1.97;;
3133;SDS011;1577;49.912;10.924;2023-06-14T08:11:02;3.20;;;1.87;;
3133;SDS011;1577;49.912;10.924;2023-06-14T08:13:27;2.70;;;2.13;;
3133;SDS011;1577;49.912;10.924;2023-06-14T08:15:53;2.80;;;1.53;;
3133;SDS011;1577;49.912;10.924;2023-06-14T08:18:20;3.90;;;2.50;;
3133;SDS011;1577;49.912;10.924;2023-06-14T08:20:45;2.67;;;1.87;;
3133;SDS011;1577;49.912;10.924;2023-06-14T08:23:11;2.10;;;1.50;;
3133;SDS011;1577;49.912;10.924;2023-06-14T08:25:38;3.47;;;1.83;;
3133;SDS011;1577;49.912;10.924;2023-06-14T08:28:03;2.40;;;1.63;;
3133;SDS011;1577;49.912;10.924;2023-06-14T08:30:30;2.43;;;1.67;;
3133;SDS011;1577;49.912;10.924;2023-06-14T08:32:55;5.17;;;1.63;;
3133;SDS011;1577;49.912;10.924;2023-06-14T08:35:21;5.23;;;1.67;;
3133;SDS011;1577;49.912;10.924;2023-06-14T08:37:47;9.53;;;2.43;;
3133;SDS011;1577;49.912;10.924;2023-06-14T08:40:21;2.27;;;1.57;;
3133;SDS011;1577;49.912;10.924;2023-06-14T08:42:52;2.50;;;1.43;;
3133;SDS011;1577;49.912;10.924;2023-06-14T08:45:19;2.60;;;1.60;;
3133;SDS011;1577;49.912;10.924;2023-06-14T08:47:46;4.50;;;1.70;;
3133;SDS011;1577;49.912;10.924;2023-06-14T08:50:18;6.43;;;1.80;;
3133;SDS011;1577;49.912;10.924;2023-06-14T08:52:45;3.97;;;1.70;;
3133;SDS011;1577;49.912;10.924;2023-06-14T08:55:17;4.03;;;2.30;;
3133;SDS011;1577;49.912;10.924;2023-06-14T08:57:44;3.00;;;1.90;;
3133;SDS011;1577;49.912;10.924;2023-06-14T09:00:12;3.33;;;1.90;;
3133;SDS011;1577;49.912;10.924;2023-06-14T09:02:39;3.17;;;1.97;;
3133;SDS011;1577;49.912;10.924;2023-06-14T09:05:11;2.53;;;1.70;;
3133;SDS011;1577;49.912;10.924;2023-06-14T09:07:38;9.53;;;2.97;;
3133;SDS011;1577;49.912;10.924;2023-06-14T09:10:13;3.33;;;2.00;;
3133;SDS011;1577;49.912;10.924;2023-06-14T09:12:40;2.30;;;1.90;;
3133;SDS011;1577;49.912;10.924;2023-06-14T09:15:06;3.17;;;1.97;;
3133;SDS011;1577;49.912;10.924;2023-06-14T09:17:33;2.80;;;1.80;;
3133;SDS011;1577;49.912;10.924;2023-06-14T09:20:04;2.90;;;1.80;;
3133;SDS011;1577;49.912;10.924;2023-06-14T09:22:31;2.73;;;1.70;;
3133;SDS011;1577;49.912;10.924;2023-06-14T09:24:58;2.47;;;1.70;;
3133;SDS011;1577;49.912;10.924;2023-06-14T09:27:27;3.33;;;1.70;;
3133;SDS011;1577;49.912;10.924;2023-06-14T09:29:53;2.50;;;1.77;;
3133;SDS011;1577;49.912;10.924;2023-06-14T09:32:20;2.50;;;1.63;;
3133;SDS011;1577;49.912;10.924;2023-06-14T09:34:46;2.93;;;1.90;;
3133;SDS011;1577;49.912;10.924;2023-06-14T09:37:12;3.50;;;1.97;;
3133;SDS011;1577;49.912;10.924;2023-06-14T09:39:50;3.10;;;1.80;;
3133;SDS011;1577;49.912;10.924;2023-06-14T09:42:16;2.80;;;1.87;;
3133;SDS011;1577;49.912;10.924;2023-06-14T09:44:48;2.70;;;1.90;;
3133;SDS011;1577;49.912;10.924;2023-06-14T09:47:16;2.93;;;1.77;;
3133;SDS011;1577;49.912;10.924;2023-06-14T09:49:42;2.27;;;1.70;;
3133;SDS011;1577;49.912;10.924;2023-06-14T09:52:10;5.53;;;2.10;;
3133;SDS011;1577;49.912;10.924;2023-06-14T09:54:42;4.90;;;1.70;;
3133;SDS011;1577;49.912;10.924;2023-06-14T09:57:09;3.37;;;2.07;;
3133;SDS011;1577;49.912;10.924;2023-06-14T09:59:41;4.30;;;2.10;;
3133;SDS011;1577;49.912;10.924;2023-06-14T10:02:34;3.37;;;1.60;;
3133;SDS011;1577;49.912;10.924;2023-06-14T10:05:03;2.83;;;1.80;;
3133;SDS011;1577;49.912;10.924;2023-06-14T10:07:32;4.03;;;1.70;;
3133;SDS011;1577;49.912;10.924;2023-06-14T10:10:25;2.90;;;2.07;;
3133;SDS011;1577;49.912;10.924;2023-06-14T10:12:51;3.60;;;2.00;;
3133;SDS011;1577;49.912;10.924;2023-06-14T10:15:22;4.20;;;1.87;;
3133;SDS011;1577;49.912;10.924;2023-06-14T10:17:59;3.50;;;2.07;;
3133;SDS011;1577;49.912;10.924;2023-06-14T10:20:39;3.00;;;1.80;;
3133;SDS011;1577;49.912;10.924;2023-06-14T10:23:16;4.20;;;1.73;;
3133;SDS011;1577;49.912;10.924;2023-06-14T10:25:45;3.60;;;2.30;;
3133;SDS011;1577;49.912;10.924;2023-06-14T10:28:19;2.30;;;1.80;;
3133;SDS011;1577;49.912;10.924;2023-06-14T10:33:32;4.77;;;1.90;;
3133;SDS011;1577;49.912;10.924;2023-06-14T10:36:23;5.37;;;2.30;;
3133;SDS011;1577;49.912;10.924;2023-06-14T10:41:40;3.80;;;2.50;;
3133;SDS011;1577;49.912;10.924;2023-06-14T10:47:20;3.80;;;2.40;;
3133;SDS011;1577;49.912;10.924;2023-06-14T10:52:14;3.70;;;2.10;;
3133;SDS011;1577;49.912;10.924;2023-06-14T10:55:03;5.97;;;2.30;;
3133;SDS011;1577;49.912;10.924;2023-06-14T10:57:51;2.80;;;1.90;;
3133;SDS011;1577;49.912;10.924;2023-06-14T11:00:27;5.17;;;2.50;;
3133;SDS011;1577;49.912;10.924;2023-06-14T11:05:49;3.07;;;2.10;;
3133;SDS011;1577;49.912;10.924;2023-06-14T11:11:25;3.17;;;1.93;;
3133;SDS011;1577;49.912;10.924;2023-06-14T11:13:57;4.73;;;1.80;;
3133;SDS011;1577;49.912;10.924;2023-06-14T11:16:25;3.67;;;1.97;;
3133;SDS011;1577;49.912;10.924;2023-06-14T11:18:52;6.87;;;2.30;;
3133;SDS011;1577;49.912;10.924;2023-06-14T11:21:18;6.67;;;2.47;;
3133;SDS011;1577;49.912;10.924;2023-06-14T11:23:51;2.33;;;1.83;;
3133;SDS011;1577;49.912;10.924;2023-06-14T11:26:24;3.40;;;2.20;;
3133;SDS011;1577;49.912;10.924;2023-06-14T11:28:57;3.80;;;1.73;;
3133;SDS011;1577;49.912;10.924;2023-06-14T11:31:24;2.77;;;1.97;;
3133;SDS011;1577;49.912;10.924;2023-06-14T11:33:50;4.80;;;2.00;;
3133;SDS011;1577;49.912;10.924;2023-06-14T11:36:18;2.60;;;1.60;;
3133;SDS011;1577;49.912;10.924;2023-06-14T11:38:44;4.27;;;2.13;;
3133;SDS011;1577;49.912;10.924;2023-06-14T11:41:10;3.27;;;1.80;;
3133;SDS011;1577;49.912;10.924;2023-06-14T11:43:35;3.13;;;1.93;;
3133;SDS011;1577;49.912;10.924;2023-06-14T11:46:02;3.80;;;1.77;;
3133;SDS011;1577;49.912;10.924;2023-06-14T11:48:37;4.30;;;1.83;;
3133;SDS011;1577;49.912;10.924;2023-06-14T11:51:03;2.50;;;1.70;;
3133;SDS011;1577;49.912;10.924;2023-06-14T11:53:29;4.67;;;2.20;;
3133;SDS011;1577;49.912;10.924;2023-06-14T11:55:55;8.80;;;1.80;;
3133;SDS011;1577;49.912;10.924;2023-06-14T11:58:22;5.43;;;1.93;;
3133;SDS011;1577;49.912;10.924;2023-06-14T12:00:50;2.00;;;1.73;;
3133;SDS011;1577;49.912;10.924;2023-06-14T12:03:17;2.60;;;1.80;;
3133;SDS011;1577;49.912;10.924;2023-06-14T12:05:43;5.80;;;2.70;;
3133;SDS011;1577;49.912;10.924;2023-06-14T12:08:08;3.20;;;1.90;;
3133;SDS011;1577;49.912;10.924;2023-06-14T12:10:40;6.90;;;1.70;;
3133;SDS011;1577;49.912;10.924;2023-06-14T12:13:09;3.10;;;2.00;;
3133;SDS011;1577;49.912;10.924;2023-06-14T12:15:35;3.67;;;2.03;;
3133;SDS011;1577;49.912;10.924;2023-06-14T12:18:01;3.03;;;1.60;;
3133;SDS011;1577;49.912;10.924;2023-06-14T12:20:33;2.57;;;1.63;;
3133;SDS011;1577;49.912;10.924;2023-06-14T12:23:00;3.20;;;2.10;;
3133;SDS011;1577;49.912;10.924;2023-06-14T12:25:35;2.80;;;1.83;;
3133;SDS011;1577;49.912;10.924;2023-06-14T12:28:05;4.47;;;1.60;;
3133;SDS011;1577;49.912;10.924;2023-06-14T12:30:32;3.87;;;1.67;;
3133;SDS011;1577;49.912;10.924;2023-06-14T12:32:58;5.00;;;1.90;;
3133;SDS011;1577;49.912;10.924;2023-06-14T12:35:25;3.23;;;1.80;;
3133;SDS011;1577;49.912;10.924;2023-06-14T12:37:50;3.13;;;1.80;;
3133;SDS011;1577;49.912;10.924;2023-06-14T12:40:16;3.30;;;1.70;;
3133;SDS011;1577;49.912;10.924;2023-06-14T12:42:42;2.40;;;1.60;;
3133;SDS011;1577;49.912;10.924;2023-06-14T12:45:10;2.50;;;1.67;;
3133;SDS011;1577;49.912;10.924;2023-06-14T12:47:35;3.10;;;1.53;;
3133;SDS011;1577;49.912;10.924;2023-06-14T12:50:01;2.40;;;1.60;;
3133;SDS011;1577;49.912;10.924;2023-06-14T12:52:27;3.93;;;1.77;;
3133;SDS011;1577;49.912;10.924;2023-06-14T12:54:53;4.67;;;1.60;;
3133;SDS011;1577;49.912;10.924;2023-06-14T12:57:18;3.73;;;1.77;;
3133;SDS011;1577;49.912;10.924;2023-06-14T12:59:44;2.90;;;1.50;;
3133;SDS011;1577;49.912;10.924;2023-06-14T13:02:14;3.80;;;1.50;;
3133;SDS011;1577;49.912;10.924;2023-06-14T13:04:42;4.27;;;1.43;;
3133;SDS011;1577;49.912;10.924;2023-06-14T13:07:11;2.43;;;1.40;;
3133;SDS011;1577;49.912;10.924;2023-06-14T13:09:37;2.80;;;1.60;;
3133;SDS011;1577;49.912;10.924;2023-06-14T13:12:03;3.37;;;1.70;;
3133;SDS011;1577;49.912;10.924;2023-06-14T13:14:28;3.63;;;1.73;;
3133;SDS011;1577;49.912;10.924;2023-06-14T13:16:54;3.13;;;1.80;;
3133;SDS011;1577;49.912;10.924;2023-06-14T13:19:20;2.20;;;1.50;;
3133;SDS011;1577;49.912;10.924;2023-06-14T13:21:46;2.90;;;1.90;;
3133;SDS011;1577;49.912;10.924;2023-06-14T13:24:11;2.57;;;1.40;;
3133;SDS011;1577;49.912;10.924;2023-06-14T13:26:37;3.33;;;1.60;;
3133;SDS011;1577;49.912;10.924;2023-06-14T13:29:02;7.03;;;2.03;;
3133;SDS011;1577;49.912;10.924;2023-06-14T13:31:29;2.40;;;1.63;;
3133;SDS011;1577;49.912;10.924;2023-06-14T13:33:54;2.27;;;1.27;;
3133;SDS011;1577;49.912;10.924;2023-06-14T13:36:20;2.27;;;1.53;;
3133;SDS011;1577;49.912;10.924;2023-06-14T13:38:46;2.50;;;1.40;;
3133;SDS011;1577;49.912;10.924;2023-06-14T13:41:11;2.27;;;1.70;;
3133;SDS011;1577;49.912;10.924;2023-06-14T13:43:37;3.00;;;1.53;;
3133;SDS011;1577;49.912;10.924;2023-06-14T13:46:02;4.10;;;1.87;;
3133;SDS011;1577;49.912;10.924;2023-06-14T13:48:28;2.13;;;1.50;;
3133;SDS011;1577;49.912;10.924;2023-06-14T13:50:54;5.67;;;1.93;;
3133;SDS011;1577;49.912;10.924;2023-06-14T13:53:19;3.70;;;1.87;;
3133;SDS011;1577;49.912;10.924;2023-06-14T13:55:45;2.57;;;1.80;;
3133;SDS011;1577;49.912;10.924;2023-06-14T13:58:10;3.10;;;1.57;;
3133;SDS011;1577;49.912;10.924;2023-06-14T14:00:36;4.20;;;1.50;;
3133;SDS011;1577;49.912;10.924;2023-06-14T14:03:05;2.67;;;1.87;;
3133;SDS011;1577;49.912;10.924;2023-06-14T14:05:32;3.57;;;1.53;;
3133;SDS011;1577;49.912;10.924;2023-06-14T14:07:58;3.60;;;1.70;;
3133;SDS011;1577;49.912;10.924;2023-06-14T14:10:26;2.30;;;1.50;;
3133;SDS011;1577;49.912;10.924;2023-06-14T14:12:52;2.80;;;1.50;;
3133;SDS011;1577;49.912;10.924;2023-06-14T14:15:19;2.47;;;1.70;;
3133;SDS011;1577;49.912;10.924;2023-06-14T14:17:45;2.93;;;1.87;;
3133;SDS011;1577;49.912;10.924;2023-06-14T14:20:12;2.90;;;1.77;;
3133;SDS011;1577;49.912;10.924;2023-06-14T14:22:40;3.40;;;1.67;;
3133;SDS011;1577;49.912;10.924;2023-06-14T14:25:08;2.37;;;1.50;;
3133;SDS011;1577;49.912;10.924;2023-06-14T14:27:34;7.33;;;1.63;;
3133;SDS011;1577;49.912;10.924;2023-06-14T14:30:00;3.70;;;2.33;;
3133;SDS011;1577;49.912;10.924;2023-06-14T14:32:26;3.40;;;1.73;;
3133;SDS011;1577;49.912;10.924;2023-06-14T14:34:52;5.60;;;1.50;;
3133;SDS011;1577;49.912;10.924;2023-06-14T14:37:17;5.30;;;1.60;;
3133;SDS011;1577;49.912;10.924;2023-06-14T14:39:44;2.27;;;1.60;;
3133;SDS011;1577;49.912;10.924;2023-06-14T14:42:10;3.87;;;1.73;;
3133;SDS011;1577;49.912;10.924;2023-06-14T14:44:37;2.20;;;1.60;;
3133;SDS011;1577;49.912;10.924;2023-06-14T14:47:03;3.87;;;2.03;;
3133;SDS011;1577;49.912;10.924;2023-06-14T14:49:30;3.60;;;1.57;;
3133;SDS011;1577;49.912;10.924;2023-06-14T14:51:56;4.00;;;1.70;;
3133;SDS011;1577;49.912;10.924;2023-06-14T14:54:22;4.90;;;2.13;;
3133;SDS011;1577;49.912;10.924;2023-06-14T14:56:48;4.70;;;2.00;;
3133;SDS011;1577;49.912;10.924;2023-06-14T14:59:14;3.30;;;1.90;;
3133;SDS011;1577;49.912;10.924;2023-06-14T15:01:39;4.27;;;2.20;;
3133;SDS011;1577;49.912;10.924;2023-06-14T15:04:05;4.87;;;2.37;;
3133;SDS011;1577;49.912;10.924;2023-06-14T15:06:31;2.37;;;1.77;;
3133;SDS011;1577;49.912;10.924;2023-06-14T15:08:56;2.83;;;1.77;;
3133;SDS011;1577;49.912;10.924;2023-06-14T15:11:22;3.57;;;1.70;;
3133;SDS011;1577;49.912;10.924;2023-06-14T15:13:48;3.00;;;1.90;;
3133;SDS011;1577;49.912;10.924;2023-06-14T15:16:14;2.80;;;1.80;;
3133;SDS011;1577;49.912;10.924;2023-06-14T15:18:39;3.77;;;2.00;;
3133;SDS011;1577;49.912;10.924;2023-06-14T15:21:05;5.77;;;2.27;;